Time;durP1;ratioP1;P1;durP2;ratioP2;P2;SDS_P1;SDS_P2;PMS_P1;PMS_P2;Temp;Humidity;BMP_temperature;BMP_pressure;BME280_temperature;BME280_humidity;BME280_pressure;Samples;Min_cycle;Max_cycle;Signal;HPM_P1;HPM_P2
2023/03/30 00:00:54;;;;;;;9.35;5.30;;;;;;;;;;5054438;28;20033;-73
2023/03/30 00:03:21;;;;;;;8.50;4.63;;;;;;;;;;5054086;28;20078;-72
2023/03/30 00:05:50;;;;;;;12.45;4.90;;;;;;;;;;5054142;28;20070;-72
2023/03/30 00:08:17;;;;;;;11.55;4.70;;;;;;;;;;5053748;28;20029;-72
2023/03/30 00:10:44;;;;;;;10.10;5.03;;;;;;;;;;5053986;28;20413;-71
2023/03/30 00:13:11;;;;;;;13.90;4.72;;;;;;;;;;5053917;28;20025;-71
2023/03/30 00:15:38;;;;;;;6.82;4.38;;;;;;;;;;5053954;28;20021;-72
2023/03/30 00:18:05;;;;;;;9.77;4.78;;;;;;;;;;5053908;28;20498;-72
2023/03/30 00:20:31;;;;;;;10.18;4.82;;;;;;;;;;5053974;28;20122;-72
2023/03/30 00:22:58;;;;;;;14.93;5.38;;;;;;;;;;5053155;28;20025;-72
2023/03/30 00:25:24;;;;;;;10.35;5.22;;;;;;;;;;5053954;28;20029;-72
2023/03/30 00:27:51;;;;;;;9.88;5.93;;;;;;;;;;5053442;28;20025;-73
2023/03/30 00:30:17;;;;;;;12.77;6.45;;;;;;;;;;5052280;28;20033;-73
2023/03/30 00:32:44;;;;;;;11.63;6.70;;;;;;;;;;5053664;28;20401;-72
2023/03/30 00:35:12;;;;;;;14.05;7.32;;;;;;;;;;5053764;28;20027;-72
2023/03/30 00:37:38;;;;;;;13.80;6.78;;;;;;;;;;5053238;28;20389;-72
2023/03/30 00:40:06;;;;;;;13.35;6.75;;;;;;;;;;5053771;28;20033;-72
2023/03/30 00:42:36;;;;;;;11.25;7.13;;;;;;;;;;5052491;28;20033;-72
2023/03/30 00:45:21;;;;;;;13.68;6.97;;;;;;;;;;5053270;28;20392;-72
2023/03/30 00:47:57;;;;;;;11.45;5.93;;;;;;;;;;5053252;28;20420;-73
2023/03/30 00:50:26;;;;;;;11.68;6.00;;;;;;;;;;5053639;28;20025;-72
2023/03/30 00:52:53;;;;;;;14.95;5.85;;;;;;;;;;5053027;28;20078;-73
2023/03/30 00:55:21;;;;;;;13.15;6.32;;;;;;;;;;5053198;28;20025;-72
2023/03/30 00:57:48;;;;;;;13.98;6.15;;;;;;;;;;5053174;28;20031;-72
2023/03/30 01:00:15;;;;;;;12.25;5.35;;;;;;;;;;5053181;28;20078;-72
2023/03/30 01:02:45;;;;;;;10.85;5.32;;;;;;;;;;5052940;28;20035;-72
2023/03/30 01:05:11;;;;;;;10.07;5.50;;;;;;;;;;5052970;28;20032;-72
2023/03/30 01:07:39;;;;;;;13.25;5.35;;;;;;;;;;5052480;28;20082;-72
2023/03/30 01:10:07;;;;;;;10.57;5.60;;;;;;;;;;5052856;28;20504;-72
2023/03/30 01:12:33;;;;;;;12.40;5.43;;;;;;;;;;5053216;28;20031;-72
2023/03/30 01:15:00;;;;;;;11.73;5.45;;;;;;;;;;5052696;28;20401;-73
2023/03/30 01:17:38;;;;;;;11.65;5.45;;;;;;;;;;5052806;28;20029;-72
2023/03/30 01:20:19;;;;;;;12.15;5.88;;;;;;;;;;5052824;28;20028;-72
2023/03/30 01:23:12;;;;;;;14.55;6.90;;;;;;;;;;5052234;28;20032;-72
2023/03/30 01:25:58;;;;;;;13.20;6.13;;;;;;;;;;5052689;28;20017;-72
2023/03/30 01:28:33;;;;;;;12.50;5.68;;;;;;;;;;5052565;28;20029;-72
2023/03/30 01:31:19;;;;;;;12.63;4.80;;;;;;;;;;5052324;28;20039;-72
2023/03/30 01:33:57;;;;;;;10.85;5.18;;;;;;;;;;5052292;28;20040;-72
2023/03/30 01:36:27;;;;;;;10.40;4.20;;;;;;;;;;5052213;28;20028;-73
2023/03/30 01:39:02;;;;;;;7.38;4.38;;;;;;;;;;5052422;28;20551;-72
2023/03/30 01:41:33;;;;;;;10.32;4.18;;;;;;;;;;5052174;28;20059;-72
2023/03/30 01:44:07;;;;;;;10.77;4.10;;;;;;;;;;5052337;28;20486;-72
2023/03/30 01:46:39;;;;;;;9.30;4.35;;;;;;;;;;5052162;28;20074;-72
2023/03/30 01:49:08;;;;;;;9.07;3.92;;;;;;;;;;5052220;28;20024;-72
2023/03/30 01:51:41;;;;;;;14.38;4.22;;;;;;;;;;5051884;28;20029;-72
2023/03/30 01:54:09;;;;;;;12.45;4.40;;;;;;;;;;5052074;28;20368;-73
2023/03/30 01:56:43;;;;;;;6.82;3.72;;;;;;;;;;5051829;28;20017;-72
2023/03/30 01:59:25;;;;;;;13.38;4.65;;;;;;;;;;5052258;28;20495;-72
2023/03/30 02:01:59;;;;;;;10.93;4.80;;;;;;;;;;5051823;28;20021;-72
2023/03/30 02:04:26;;;;;;;11.18;4.72;;;;;;;;;;5051562;28;20032;-72
2023/03/30 02:06:55;;;;;;;12.55;5.10;;;;;;;;;;5052025;28;20031;-72
2023/03/30 02:09:22;;;;;;;8.75;4.30;;;;;;;;;;5051693;28;20023;-72
2023/03/30 02:11:52;;;;;;;11.45;4.13;;;;;;;;;;5050355;28;20029;-72
2023/03/30 02:14:20;;;;;;;10.90;4.68;;;;;;;;;;5051476;28;20033;-72
2023/03/30 02:16:48;;;;;;;10.50;4.18;;;;;;;;;;5051603;28;20024;-72
2023/03/30 02:19:15;;;;;;;9.55;4.97;;;;;;;;;;5051220;28;20522;-72
2023/03/30 02:21:42;;;;;;;13.35;4.60;;;;;;;;;;5051469;28;20025;-72
2023/03/30 02:24:17;;;;;;;10.30;4.53;;;;;;;;;;5051462;28;20474;-72
2023/03/30 02:26:47;;;;;;;8.75;4.40;;;;;;;;;;5051693;28;20039;-72
2023/03/30 02:29:14;;;;;;;10.55;4.68;;;;;;;;;;5051274;28;20041;-72
2023/03/30 02:31:41;;;;;;;11.23;4.95;;;;;;;;;;5051255;28;20047;-72
2023/03/30 02:34:07;;;;;;;8.00;4.72;;;;;;;;;;5051268;28;20027;-72
2023/03/30 02:36:34;;;;;;;7.05;4.00;;;;;;;;;;5051257;28;20478;-72
2023/03/30 02:39:06;;;;;;;7.47;4.40;;;;;;;;;;5051815;28;20029;-73
2023/03/30 02:41:36;;;;;;;9.27;4.53;;;;;;;;;;5051114;28;20482;-72
2023/03/30 02:44:15;;;;;;;8.77;4.32;;;;;;;;;;5051175;28;20036;-72
2023/03/30 02:46:45;;;;;;;9.75;5.22;;;;;;;;;;5051109;28;20025;-73
2023/03/30 02:49:22;;;;;;;10.07;4.57;;;;;;;;;;5050872;28;20444;-72
2023/03/30 02:51:51;;;;;;;8.50;4.90;;;;;;;;;;5050894;28;20033;-72
2023/03/30 02:54:23;;;;;;;9.13;5.07;;;;;;;;;;5051225;28;20036;-73
2023/03/30 02:57:05;;;;;;;9.10;4.93;;;;;;;;;;5051377;28;20025;-73
2023/03/30 02:59:52;;;;;;;12.35;4.80;;;;;;;;;;5050993;28;20047;-73
2023/03/30 03:02:21;;;;;;;13.70;5.10;;;;;;;;;;5050573;28;20040;-73
2023/03/30 03:04:49;;;;;;;8.70;4.53;;;;;;;;;;5051310;28;20021;-72
2023/03/30 03:07:16;;;;;;;8.38;4.55;;;;;;;;;;5054833;28;20033;-72
2023/03/30 03:09:42;;;;;;;8.93;4.40;;;;;;;;;;5055019;28;20032;-72
2023/03/30 03:12:09;;;;;;;11.00;5.25;;;;;;;;;;5054938;28;20500;-72
2023/03/30 03:14:35;;;;;;;9.15;4.60;;;;;;;;;;5054944;28;20025;-73
2023/03/30 03:17:03;;;;;;;9.75;4.97;;;;;;;;;;5055091;28;20017;-72
2023/03/30 03:19:30;;;;;;;14.15;5.22;;;;;;;;;;5053623;28;20025;-72
2023/03/30 03:21:56;;;;;;;9.60;5.07;;;;;;;;;;5055279;28;20025;-72
2023/03/30 03:24:22;;;;;;;12.18;5.30;;;;;;;;;;5054681;28;20013;-72
2023/03/30 03:26:49;;;;;;;10.98;5.07;;;;;;;;;;5054742;28;20025;-72
2023/03/30 03:29:15;;;;;;;11.70;4.97;;;;;;;;;;5053058;28;20053;-72
2023/03/30 03:31:42;;;;;;;10.05;4.57;;;;;;;;;;5054240;28;20033;-72
2023/03/30 03:34:08;;;;;;;7.80;4.78;;;;;;;;;;5054590;28;20397;-72
2023/03/30 03:36:34;;;;;;;7.85;4.28;;;;;;;;;;5054589;28;20409;-72
2023/03/30 03:39:01;;;;;;;10.65;4.82;;;;;;;;;;5054494;28;20036;-73
2023/03/30 03:41:27;;;;;;;9.05;5.15;;;;;;;;;;5054830;28;20039;-72
2023/03/30 03:43:53;;;;;;;10.20;4.45;;;;;;;;;;5054542;28;20025;-72
2023/03/30 03:46:20;;;;;;;8.57;4.38;;;;;;;;;;5053976;28;20029;-72
2023/03/30 03:48:46;;;;;;;10.88;4.70;;;;;;;;;;5054428;28;20021;-73
2023/03/30 03:51:13;;;;;;;9.20;4.38;;;;;;;;;;5054539;28;20044;-72
2023/03/30 03:53:39;;;;;;;11.00;4.55;;;;;;;;;;5054376;28;20040;-72
2023/03/30 03:56:06;;;;;;;11.25;4.55;;;;;;;;;;5053008;28;20025;-72
2023/03/30 03:58:32;;;;;;;11.40;5.30;;;;;;;;;;5054170;28;20493;-73
2023/03/30 04:00:59;;;;;;;10.20;5.15;;;;;;;;;;5053757;28;20032;-72
2023/03/30 04:03:25;;;;;;;12.45;5.07;;;;;;;;;;5054033;28;20393;-73
2023/03/30 04:05:52;;;;;;;11.38;5.10;;;;;;;;;;5054286;28;20028;-72
2023/03/30 04:08:18;;;;;;;13.35;4.47;;;;;;;;;;5053839;28;20017;-72
2023/03/30 04:10:45;;;;;;;12.35;4.70;;;;;;;;;;5053945;28;20439;-72
2023/03/30 04:13:11;;;;;;;9.70;4.95;;;;;;;;;;5053673;28;20521;-74
2023/03/30 04:15:37;;;;;;;10.43;5.28;;;;;;;;;;5053596;28;20379;-72
2023/03/30 04:18:04;;;;;;;10.45;4.40;;;;;;;;;;5052845;28;20029;-73
2023/03/30 04:20:30;;;;;;;10.40;4.70;;;;;;;;;;5054043;28;20029;-73
2023/03/30 04:23:00;;;;;;;14.02;4.78;;;;;;;;;;5053456;28;20045;-73
2023/03/30 04:25:27;;;;;;;10.23;5.00;;;;;;;;;;5054008;28;20021;-73
2023/03/30 04:27:54;;;;;;;8.65;4.97;;;;;;;;;;5052067;28;20043;-71
2023/03/30 04:30:21;;;;;;;10.90;4.80;;;;;;;;;;5053031;28;20412;-72
2023/03/30 04:33:09;;;;;;;10.85;4.60;;;;;;;;;;5053171;28;20386;-72
2023/03/30 04:35:34;;;;;;;11.85;4.28;;;;;;;;;;5053303;28;20033;-72
2023/03/30 04:38:01;;;;;;;12.80;4.55;;;;;;;;;;5053489;28;20041;-73
2023/03/30 04:40:27;;;;;;;13.05;4.63;;;;;;;;;;5053315;28;20025;-72
2023/03/30 04:42:54;;;;;;;7.68;4.10;;;;;;;;;;5053274;28;20017;-73
2023/03/30 04:45:20;;;;;;;14.32;4.60;;;;;;;;;;5053132;28;20025;-72
2023/03/30 04:47:46;;;;;;;15.93;4.80;;;;;;;;;;5053138;28;20029;-72
2023/03/30 04:50:13;;;;;;;11.80;4.70;;;;;;;;;;5053313;28;20023;-72
2023/03/30 04:52:40;;;;;;;10.40;5.18;;;;;;;;;;5053273;28;20443;-72
2023/03/30 04:55:07;;;;;;;12.45;4.65;;;;;;;;;;5053209;28;20508;-73
2023/03/30 04:57:33;;;;;;;8.98;5.18;;;;;;;;;;5052047;28;20033;-73
2023/03/30 05:00:00;;;;;;;9.63;4.47;;;;;;;;;;5053120;28;20047;-73
2023/03/30 05:02:26;;;;;;;13.60;4.97;;;;;;;;;;5052817;28;20025;-73
2023/03/30 05:04:52;;;;;;;10.95;4.50;;;;;;;;;;5052931;28;20473;-72
2023/03/30 05:07:19;;;;;;;9.65;4.22;;;;;;;;;;5051621;28;20033;-72
2023/03/30 05:09:45;;;;;;;9.48;4.80;;;;;;;;;;5052749;28;20033;-72
2023/03/30 05:12:12;;;;;;;17.08;5.10;;;;;;;;;;5052722;28;20482;-72
2023/03/30 05:14:38;;;;;;;10.25;4.50;;;;;;;;;;5052406;28;20033;-72
2023/03/30 05:17:04;;;;;;;15.63;4.60;;;;;;;;;;5052646;28;20474;-73
2023/03/30 05:19:30;;;;;;;7.55;4.35;;;;;;;;;;5052919;28;20520;-72
2023/03/30 05:21:57;;;;;;;13.70;5.00;;;;;;;;;;5052642;28;20040;-72
2023/03/30 05:24:23;;;;;;;12.05;5.78;;;;;;;;;;5052420;28;20047;-73
2023/03/30 05:26:49;;;;;;;10.05;5.55;;;;;;;;;;5052491;28;20020;-72
2023/03/30 05:29:16;;;;;;;8.23;4.28;;;;;;;;;;5051564;28;20051;-72
2023/03/30 05:31:42;;;;;;;12.57;4.82;;;;;;;;;;5052263;28;20055;-73
2023/03/30 05:34:09;;;;;;;10.50;4.82;;;;;;;;;;5052264;28;20024;-72
2023/03/30 05:36:36;;;;;;;10.70;4.10;;;;;;;;;;5052355;28;20035;-72
2023/03/30 05:39:04;;;;;;;14.27;4.40;;;;;;;;;;5052172;28;20024;-73
2023/03/30 05:41:30;;;;;;;9.07;4.07;;;;;;;;;;5052540;28;20066;-73
2023/03/30 05:43:57;;;;;;;6.38;4.45;;;;;;;;;;5052042;28;20017;-72
2023/03/30 05:46:23;;;;;;;7.53;4.35;;;;;;;;;;5050793;28;20126;-72
2023/03/30 05:48:50;;;;;;;12.02;4.70;;;;;;;;;;5052017;28;20070;-73
2023/03/30 05:51:16;;;;;;;9.90;5.00;;;;;;;;;;5052047;28;20036;-72
2023/03/30 05:53:44;;;;;;;12.70;4.60;;;;;;;;;;5051812;28;20013;-72
2023/03/30 05:56:10;;;;;;;9.52;4.10;;;;;;;;;;5052136;28;20032;-73
2023/03/30 05:58:37;;;;;;;9.88;4.95;;;;;;;;;;5048812;28;20116;-73
2023/03/30 06:01:04;;;;;;;8.38;4.05;;;;;;;;;;5051649;28;20023;-73
2023/03/30 06:03:31;;;;;;;9.93;4.40;;;;;;;;;;5051369;28;20037;-73
2023/03/30 06:05:58;;;;;;;11.32;4.72;;;;;;;;;;5051426;28;20477;-72
2023/03/30 06:08:25;;;;;;;10.40;4.97;;;;;;;;;;5051043;28;20025;-72
2023/03/30 06:10:53;;;;;;;13.65;4.68;;;;;;;;;;5051387;28;20023;-72
2023/03/30 06:13:20;;;;;;;13.63;5.03;;;;;;;;;;5051229;28;20055;-72
2023/03/30 06:15:46;;;;;;;9.63;4.93;;;;;;;;;;5051126;28;20037;-73
2023/03/30 06:18:13;;;;;;;10.30;4.78;;;;;;;;;;5049986;28;20470;-72
2023/03/30 06:20:39;;;;;;;10.55;7.97;;;;;;;;;;5051303;28;20025;-72
2023/03/30 06:23:06;;;;;;;12.43;6.72;;;;;;;;;;5050882;28;20025;-72
2023/03/30 06:25:32;;;;;;;13.98;5.72;;;;;;;;;;5050879;28;20035;-73
2023/03/30 06:27:58;;;;;;;8.57;5.35;;;;;;;;;;5050264;28;20493;-73
2023/03/30 06:30:25;;;;;;;18.38;9.45;;;;;;;;;;5050821;28;20563;-72
2023/03/30 06:32:52;;;;;;;12.82;8.07;;;;;;;;;;5050705;28;20059;-72
2023/03/30 06:35:18;;;;;;;17.05;8.70;;;;;;;;;;5051299;28;20019;-72
2023/03/30 06:37:45;;;;;;;16.67;8.63;;;;;;;;;;5051079;28;20024;-72
2023/03/30 06:40:14;;;;;;;13.98;5.47;;;;;;;;;;5050453;28;20048;-72
2023/03/30 06:42:42;;;;;;;9.90;4.78;;;;;;;;;;5050316;28;20406;-72
2023/03/30 06:45:10;;;;;;;10.75;5.07;;;;;;;;;;5050671;28;20023;-72
2023/03/30 06:47:36;;;;;;;14.43;5.05;;;;;;;;;;5050557;28;20029;-72
2023/03/30 06:50:03;;;;;;;10.50;4.40;;;;;;;;;;5050184;28;20561;-72
2023/03/30 06:52:29;;;;;;;7.93;4.55;;;;;;;;;;5050412;28;20040;-72
2023/03/30 06:54:56;;;;;;;9.98;4.40;;;;;;;;;;5050173;28;20381;-72
2023/03/30 06:57:22;;;;;;;8.23;3.70;;;;;;;;;;5049596;28;20021;-72
2023/03/30 06:59:48;;;;;;;11.75;3.38;;;;;;;;;;5050872;28;20111;-72
2023/03/30 07:02:15;;;;;;;12.57;4.30;;;;;;;;;;5050380;28;20017;-72
2023/03/30 07:04:41;;;;;;;8.60;3.88;;;;;;;;;;5050797;28;20055;-72
2023/03/30 07:07:08;;;;;;;9.70;3.90;;;;;;;;;;5050598;28;20393;-72
2023/03/30 07:09:34;;;;;;;5.93;3.20;;;;;;;;;;5050596;28;20013;-72
2023/03/30 07:12:01;;;;;;;6.65;3.65;;;;;;;;;;5050673;28;20035;-72
2023/03/30 07:14:27;;;;;;;12.93;4.15;;;;;;;;;;5050630;28;20029;-73
2023/03/30 07:16:53;;;;;;;8.52;3.90;;;;;;;;;;5050762;28;20474;-72
2023/03/30 07:19:20;;;;;;;8.30;4.28;;;;;;;;;;5051010;28;20021;-73
2023/03/30 07:21:46;;;;;;;9.60;4.43;;;;;;;;;;5050759;28;20017;-73
2023/03/30 07:24:12;;;;;;;7.90;4.40;;;;;;;;;;5050397;28;20021;-73
2023/03/30 07:26:39;;;;;;;11.02;4.70;;;;;;;;;;5048110;28;20025;-72
2023/03/30 07:29:06;;;;;;;10.25;5.15;;;;;;;;;;5050415;28;20059;-73
2023/03/30 07:31:32;;;;;;;8.30;4.88;;;;;;;;;;5075256;28;20037;-73
2023/03/30 07:33:58;;;;;;;13.55;4.88;;;;;;;;;;5030549;28;20043;-73
2023/03/30 07:36:25;;;;;;;11.55;5.88;;;;;;;;;;5030606;28;20022;-72
2023/03/30 07:38:51;;;;;;;8.10;4.88;;;;;;;;;;5030448;28;20480;-73
2023/03/30 07:41:18;;;;;;;14.73;7.07;;;;;;;;;;5029312;28;20033;-72
2023/03/30 07:43:45;;;;;;;14.32;5.18;;;;;;;;;;5038166;28;20035;-72
2023/03/30 07:46:11;;;;;;;11.32;3.67;;;;;;;;;;5050662;28;20035;-72
2023/03/30 07:48:40;;;;;;;16.17;4.13;;;;;;;;;;5049934;28;20028;-72
2023/03/30 07:51:09;;;;;;;9.07;4.55;;;;;;;;;;5050882;28;20039;-72
2023/03/30 07:53:36;;;;;;;11.02;4.80;;;;;;;;;;5053821;28;20035;-73
2023/03/30 07:56:02;;;;;;;12.38;5.30;;;;;;;;;;5053849;28;20025;-73
2023/03/30 07:58:29;;;;;;;13.15;5.68;;;;;;;;;;5052881;28;20029;-72
2023/03/30 08:00:55;;;;;;;11.63;5.90;;;;;;;;;;5053524;28;20047;-72
2023/03/30 08:03:22;;;;;;;10.48;5.25;;;;;;;;;;5053918;28;20021;-72
2023/03/30 08:05:52;;;;;;;12.07;6.80;;;;;;;;;;5053988;28;20385;-73
2023/03/30 08:08:19;;;;;;;13.80;5.65;;;;;;;;;;5053342;28;20048;-72
2023/03/30 08:10:45;;;;;;;10.75;4.35;;;;;;;;;;5053997;28;20031;-72
2023/03/30 08:13:12;;;;;;;10.23;3.75;;;;;;;;;;5053747;28;20115;-72
2023/03/30 08:15:39;;;;;;;6.57;4.13;;;;;;;;;;5053740;28;20039;-73
2023/03/30 08:18:06;;;;;;;7.70;3.42;;;;;;;;;;5053808;28;20473;-72
2023/03/30 08:20:37;;;;;;;8.15;3.88;;;;;;;;;;5053602;28;20086;-73
2023/03/30 08:23:04;;;;;;;7.43;3.13;;;;;;;;;;5053207;28;20024;-72
2023/03/30 08:25:31;;;;;;;5.63;3.08;;;;;;;;;;5053641;28;20274;-72
2023/03/30 08:27:58;;;;;;;5.63;2.95;;;;;;;;;;5053517;28;20017;-72
2023/03/30 08:30:25;;;;;;;7.53;2.47;;;;;;;;;;5054256;28;20170;-72
2023/03/30 08:32:52;;;;;;;4.90;2.45;;;;;;;;;;5053382;28;20043;-72
2023/03/30 08:35:20;;;;;;;6.13;2.40;;;;;;;;;;5053662;28;20025;-72
2023/03/30 08:37:46;;;;;;;4.35;2.20;;;;;;;;;;5053090;28;20027;-72
2023/03/30 08:40:14;;;;;;;3.88;2.08;;;;;;;;;;5053363;28;20051;-73
2023/03/30 08:42:41;;;;;;;3.97;2.10;;;;;;;;;;5053517;28;20021;-73
2023/03/30 08:45:09;;;;;;;2.28;1.80;;;;;;;;;;5053075;28;20029;-72
2023/03/30 08:47:41;;;;;;;3.28;2.28;;;;;;;;;;5052957;28;20040;-72
2023/03/30 08:50:12;;;;;;;3.78;1.73;;;;;;;;;;5053768;28;20459;-72
2023/03/30 08:52:40;;;;;;;;;;;;;;;;;;5053841;28;20052;-73
2023/03/30 08:55:19;;;;;;;2.10;1.27;;;;;;;;;;5053602;28;19904;-70
2023/03/30 08:57:56;;;;;;;2.70;1.25;;;;;;;;;;5053282;28;20031;-70
2023/03/30 09:00:28;;;;;;;4.05;1.33;;;;;;;;;;5053976;28;20025;-71
2023/03/30 09:03:00;;;;;;;3.08;1.60;;;;;;;;;;5052838;28;20029;-71
2023/03/30 09:05:31;;;;;;;2.97;1.13;;;;;;;;;;5053129;28;20020;-71
2023/03/30 09:07:57;;;;;;;2.38;1.00;;;;;;;;;;5053718;28;20363;-71
2023/03/30 09:10:26;;;;;;;1.83;1.10;;;;;;;;;;5053929;28;20017;-71
2023/03/30 09:12:54;;;;;;;2.65;1.23;;;;;;;;;;5053494;28;20037;-71
2023/03/30 09:15:34;;;;;;;1.40;0.98;;;;;;;;;;5053645;28;20029;-70
2023/03/30 09:18:15;;;;;;;2.83;1.10;;;;;;;;;;5053456;28;20405;-71
2023/03/30 09:20:42;;;;;;;2.75;1.30;;;;;;;;;;5052968;28;20035;-70
2023/03/30 09:23:13;;;;;;;2.13;1.30;;;;;;;;;;5053049;28;20025;-71
2023/03/30 09:25:39;;;;;;;;;;;;;;;;;;5053817;28;20033;-71
2023/03/30 09:28:11;;;;;;;3.38;1.20;;;;;;;;;;5053183;28;20297;-70
2023/03/30 09:30:45;;;;;;;2.05;1.10;;;;;;;;;;5053130;28;20052;-70
2023/03/30 09:33:17;;;;;;;3.75;1.42;;;;;;;;;;5053320;28;20037;-71
2023/03/30 09:35:50;;;;;;;2.75;1.30;;;;;;;;;;5052937;28;20014;-70
2023/03/30 09:38:20;;;;;;;2.63;1.30;;;;;;;;;;5052130;28;20021;-71
2023/03/30 09:40:57;;;;;;;3.17;1.30;;;;;;;;;;5052191;28;20017;-71
2023/03/30 09:43:27;;;;;;;3.47;1.35;;;;;;;;;;5050049;28;20040;-71
2023/03/30 09:45:55;;;;;;;2.08;1.08;;;;;;;;;;5051670;28;20033;-71
2023/03/30 09:48:22;;;;;;;2.83;1.20;;;;;;;;;;5051057;28;20141;-71
2023/03/30 09:50:48;;;;;;;5.40;1.60;;;;;;;;;;5052413;28;20473;-71
2023/03/30 09:53:19;;;;;;;2.20;1.40;;;;;;;;;;5052526;28;20041;-70
2023/03/30 09:55:58;;;;;;;2.70;1.60;;;;;;;;;;5052283;28;20031;-71
2023/03/30 09:58:28;;;;;;;1.77;1.30;;;;;;;;;;5052563;28;20481;-71
2023/03/30 10:00:55;;;;;;;;;;;;;;;;;;5052626;28;20025;-71
2023/03/30 10:03:22;;;;;;;2.53;1.38;;;;;;;;;;5051726;28;19939;-71
2023/03/30 10:06:03;;;;;;;4.10;1.60;;;;;;;;;;5051965;28;20485;-71
2023/03/30 10:08:29;;;;;;;3.20;1.60;;;;;;;;;;5051920;28;20393;-71
2023/03/30 10:10:57;;;;;;;8.60;1.60;;;;;;;;;;5052137;28;20035;-71
2023/03/30 10:13:50;;;;;;;2.17;1.33;;;;;;;;;;5050321;28;20024;-71
2023/03/30 10:16:27;;;;;;;3.80;1.40;;;;;;;;;;5050449;28;20033;-70
2023/03/30 10:18:56;;;;;;;3.47;1.60;;;;;;;;;;5050200;28;20516;-71
2023/03/30 10:21:26;;;;;;;4.28;1.70;;;;;;;;;;5051666;28;20021;-70
2023/03/30 10:23:53;;;;;;;;;;;;;;;;;;5051399;28;20513;-71
2023/03/30 10:26:19;;;;;;;8.23;2.05;;;;;;;;;;5051433;28;19909;-71
2023/03/30 10:28:56;;;;;;;7.13;1.70;;;;;;;;;;5051323;28;20047;-70
2023/03/30 10:31:23;;;;;;;2.90;1.65;;;;;;;;;;5050993;28;20536;-71
2023/03/30 10:33:49;;;;;;;4.57;1.80;;;;;;;;;;5047513;28;20016;-71
2023/03/30 10:36:16;;;;;;;4.95;1.92;;;;;;;;;;5050798;28;20051;-71
2023/03/30 10:38:43;;;;;;;4.07;1.85;;;;;;;;;;5050943;28;20478;-71
2023/03/30 10:41:20;;;;;;;3.78;1.80;;;;;;;;;;5050602;28;20025;-71
2023/03/30 10:43:47;;;;;;;6.25;1.70;;;;;;;;;;5049372;28;20039;-71
2023/03/30 10:46:13;;;;;;;3.45;1.48;;;;;;;;;;5050321;28;20058;-71
2023/03/30 10:48:43;;;;;;;5.07;1.73;;;;;;;;;;5050903;28;20028;-71
2023/03/30 10:51:28;;;;;;;3.63;1.48;;;;;;;;;;5050558;28;20028;-71
2023/03/30 10:54:10;;;;;;;3.88;1.70;;;;;;;;;;5050415;28;20378;-70
2023/03/30 10:56:45;;;;;;;3.30;1.42;;;;;;;;;;5050478;28;20025;-71
2023/03/30 10:59:11;;;;;;;4.03;1.60;;;;;;;;;;5050377;28;20378;-70
2023/03/30 11:01:37;;;;;;;3.55;1.60;;;;;;;;;;5050180;28;20032;-71
2023/03/30 11:04:09;;;;;;;5.88;1.85;;;;;;;;;;5050316;28;20409;-71
2023/03/30 11:06:39;;;;;;;7.65;1.88;;;;;;;;;;5050362;28;20409;-71
2023/03/30 11:09:09;;;;;;;4.88;1.70;;;;;;;;;;5051332;28;20024;-71
2023/03/30 11:11:36;;;;;;;;;;;;;;;;;;5051587;28;20023;-71
2023/03/30 11:14:07;;;;;;;3.15;1.55;;;;;;;;;;5051623;28;19905;-71
2023/03/30 11:16:33;;;;;;;4.00;1.60;;;;;;;;;;5048540;28;20037;-71
2023/03/30 11:19:04;;;;;;;2.83;1.40;;;;;;;;;;5052391;28;20029;-71
2023/03/30 11:21:36;;;;;;;4.15;1.67;;;;;;;;;;5050955;28;20025;-71
2023/03/30 11:24:22;;;;;;;2.45;1.10;;;;;;;;;;5050615;28;20025;-71
2023/03/30 11:27:00;;;;;;;5.78;1.42;;;;;;;;;;5050090;28;20021;-71
2023/03/30 11:29:41;;;;;;;6.03;1.80;;;;;;;;;;5054063;28;20041;-71
2023/03/30 11:32:08;;;;;;;4.15;1.52;;;;;;;;;;5054226;28;20017;-72
2023/03/30 11:34:34;;;;;;;5.10;1.20;;;;;;;;;;5053721;28;20029;-70
2023/03/30 11:37:19;;;;;;;7.03;1.65;;;;;;;;;;5052178;28;20025;-72
2023/03/30 11:39:54;;;;;;;3.38;1.38;;;;;;;;;;5053772;28;20025;-73
2023/03/30 11:42:23;;;;;;;6.15;1.50;;;;;;;;;;5053690;28;20044;-73
2023/03/30 11:44:53;;;;;;;5.05;1.48;;;;;;;;;;5054062;28;20037;-72
2023/03/30 11:47:23;;;;;;;6.07;1.77;;;;;;;;;;5053845;28;20025;-73
2023/03/30 11:50:08;;;;;;;4.97;1.58;;;;;;;;;;5053879;28;20027;-73
2023/03/30 11:52:44;;;;;;;6.60;1.65;;;;;;;;;;5053448;28;20041;-73
2023/03/30 11:55:10;;;;;;;4.63;1.42;;;;;;;;;;5053771;28;20515;-73
2023/03/30 11:57:37;;;;;;;5.10;1.75;;;;;;;;;;5053017;28;20424;-73
2023/03/30 12:00:22;;;;;;;4.90;2.03;;;;;;;;;;5051951;28;20017;-73
2023/03/30 12:02:54;;;;;;;8.07;1.65;;;;;;;;;;5053842;28;20037;-73
2023/03/30 12:05:24;;;;;;;5.40;1.50;;;;;;;;;;5053703;28;20017;-73
2023/03/30 12:08:01;;;;;;;4.33;1.60;;;;;;;;;;5053265;28;20063;-73
2023/03/30 12:10:39;;;;;;;6.93;2.00;;;;;;;;;;5053107;28;20496;-73
2023/03/30 12:13:08;;;;;;;5.45;1.75;;;;;;;;;;5035635;28;20032;-73
2023/03/30 12:15:34;;;;;;;11.52;1.63;;;;;;;;;;5052886;28;20485;-73
2023/03/30 12:18:16;;;;;;;7.32;2.20;;;;;;;;;;5053094;28;20493;-71
2023/03/30 12:20:50;;;;;;;7.28;1.88;;;;;;;;;;5053441;28;20493;-73
2023/03/30 12:23:26;;;;;;;6.10;1.90;;;;;;;;;;5053298;28;20504;-73
2023/03/30 12:26:06;;;;;;;7.85;2.08;;;;;;;;;;5052111;28;20026;-73
2023/03/30 12:28:33;;;;;;;;;;;;;;;;;;5053070;28;20032;-73
2023/03/30 12:30:59;;;;;;;8.27;2.40;;;;;;;;;;5053628;28;19912;-74
2023/03/30 12:33:43;;;;;;;6.88;2.20;;;;;;;;;;5053292;28;20489;-73
2023/03/30 12:36:29;;;;;;;10.73;2.42;;;;;;;;;;5052909;28;20404;-73
2023/03/30 12:39:01;;;;;;;9.20;2.45;;;;;;;;;;5049609;28;20024;-73
2023/03/30 12:41:28;;;;;;;9.25;2.75;;;;;;;;;;5052711;28;20029;-72
2023/03/30 12:43:58;;;;;;;15.07;3.25;;;;;;;;;;5052435;28;20439;-73
2023/03/30 12:46:30;;;;;;;13.85;3.42;;;;;;;;;;5041395;28;20437;-73
2023/03/30 12:48:59;;;;;;;10.05;3.30;;;;;;;;;;5032674;28;20034;-73
2023/03/30 12:51:26;;;;;;;10.68;3.25;;;;;;;;;;5032484;28;20064;-73
2023/03/30 12:54:07;;;;;;;12.65;4.15;;;;;;;;;;5043474;28;20021;-73
2023/03/30 12:56:33;;;;;;;;;;;;;;;;;;5052963;28;20039;-73
2023/03/30 12:59:15;;;;;;;10.30;3.45;;;;;;;;;;5050730;28;19933;-73
2023/03/30 13:02:00;;;;;;;7.75;2.55;;;;;;;;;;5038846;28;20048;-72
2023/03/30 13:04:32;;;;;;;12.82;2.53;;;;;;;;;;5032433;28;20080;-73
2023/03/30 13:07:02;;;;;;;10.10;2.38;;;;;;;;;;5032528;28;20143;-73
2023/03/30 13:09:30;;;;;;;8.18;2.40;;;;;;;;;;5032618;28;20033;-73
2023/03/30 13:12:00;;;;;;;10.23;3.28;;;;;;;;;;5039479;28;20036;-73
2023/03/30 13:14:26;;;;;;;8.95;2.60;;;;;;;;;;5052010;28;20466;-72
2023/03/30 13:16:52;;;;;;;9.27;2.35;;;;;;;;;;5051832;28;20027;-73
2023/03/30 13:19:40;;;;;;;7.65;3.00;;;;;;;;;;5052075;28;20440;-72
2023/03/30 13:22:12;;;;;;;7.70;2.47;;;;;;;;;;5052093;28;20039;-73
2023/03/30 13:24:43;;;;;;;12.30;2.90;;;;;;;;;;5051892;28;20153;-73
2023/03/30 13:27:20;;;;;;;13.27;2.90;;;;;;;;;;5051772;28;20408;-73
2023/03/30 13:29:52;;;;;;;12.02;2.72;;;;;;;;;;5051707;28;20075;-73
2023/03/30 13:32:30;;;;;;;9.75;2.42;;;;;;;;;;5051993;28;20559;-73
2023/03/30 13:35:02;;;;;;;7.22;2.72;;;;;;;;;;5052099;28;20035;-73
2023/03/30 13:37:37;;;;;;;9.25;2.47;;;;;;;;;;5050608;28;20043;-73
2023/03/30 13:40:16;;;;;;;9.32;3.13;;;;;;;;;;5052012;28;20035;-73
2023/03/30 13:42:42;;;;;;;10.05;2.75;;;;;;;;;;5051624;28;20068;-73
2023/03/30 13:45:26;;;;;;;9.98;2.85;;;;;;;;;;5051703;28;20381;-73
2023/03/30 13:48:01;;;;;;;6.15;2.70;;;;;;;;;;5051721;28;20040;-73
2023/03/30 13:50:30;;;;;;;9.93;2.72;;;;;;;;;;5049900;28;20017;-73
2023/03/30 13:53:10;;;;;;;8.02;2.55;;;;;;;;;;5051332;28;20500;-73
2023/03/30 13:55:36;;;;;;;12.68;2.97;;;;;;;;;;5050999;28;20402;-73
2023/03/30 13:58:04;;;;;;;11.00;2.80;;;;;;;;;;5050751;28;20380;-72
2023/03/30 14:00:47;;;;;;;10.02;2.60;;;;;;;;;;5050890;28;20025;-73
2023/03/30 14:03:32;;;;;;;6.30;2.40;;;;;;;;;;5050986;28;20416;-74
2023/03/30 14:06:03;;;;;;;9.32;3.00;;;;;;;;;;5051287;28;20025;-73
2023/03/30 14:08:33;;;;;;;8.18;2.30;;;;;;;;;;5050831;28;20037;-73
2023/03/30 14:11:00;;;;;;;8.68;2.53;;;;;;;;;;5050691;28;20318;-73
2023/03/30 14:13:27;;;;;;;9.20;2.85;;;;;;;;;;5051270;28;20070;-73
2023/03/30 14:15:54;;;;;;;8.18;2.72;;;;;;;;;;5050986;28;20500;-73
2023/03/30 14:18:25;;;;;;;5.88;2.15;;;;;;;;;;5050440;28;20017;-73
2023/03/30 14:20:54;;;;;;;6.60;2.40;;;;;;;;;;5050858;28;20436;-73
2023/03/30 14:23:26;;;;;;;4.75;2.10;;;;;;;;;;5050612;28;20570;-73
2023/03/30 14:25:54;;;;;;;8.00;2.80;;;;;;;;;;5050761;28;20028;-73
2023/03/30 14:28:20;;;;;;;11.02;2.67;;;;;;;;;;5050691;28;20029;-73
2023/03/30 14:30:54;;;;;;;9.75;2.85;;;;;;;;;;5051085;28;20097;-73
2023/03/30 14:33:21;;;;;;;10.70;2.75;;;;;;;;;;5051274;28;20033;-71
2023/03/30 14:35:57;;;;;;;11.98;2.88;;;;;;;;;;5050974;28;20032;-73
2023/03/30 14:38:36;;;;;;;8.48;2.67;;;;;;;;;;5050425;28;20482;-73
2023/03/30 14:41:05;;;;;;;7.38;2.50;;;;;;;;;;5050773;28;20474;-73
2023/03/30 14:43:33;;;;;;;13.23;2.92;;;;;;;;;;5050695;28;20489;-71
2023/03/30 14:46:02;;;;;;;9.40;2.85;;;;;;;;;;5050783;28;20492;-73
2023/03/30 14:48:31;;;;;;;6.78;2.70;;;;;;;;;;5050362;28;20040;-72
2023/03/30 14:50:59;;;;;;;8.82;2.75;;;;;;;;;;5050814;28;20017;-72
2023/03/30 14:53:27;;;;;;;8.32;2.72;;;;;;;;;;5050166;28;20017;-72